Time;durP1;ratioP1;P1;durP2;ratioP2;P2;SDS_P1;SDS_P2;PMS_P1;PMS_P2;Temp;Humidity;BMP_temperature;BMP_pressure;BME280_temperature;BME280_humidity;BME280_pressure;Samples;Min_cycle;Max_cycle;Signal;HPM_P1;HPM_P2
2021/01/06 00:01:22;;;;;;;10.57;6.53;;;5.00;1.00;;;;;;5016653;28;20559;-75
2021/01/06 00:03:49;;;;;;;10.37;6.77;;;4.90;1.00;;;;;;5020615;28;20204;-75
2021/01/06 00:06:16;;;;;;;11.10;6.23;;;4.90;1.00;;;;;;5015905;28;20590;-75
2021/01/06 00:08:43;;;;;;;11.73;7.10;;;4.90;3.90;;;;;;5017602;28;20208;-75
2021/01/06 00:11:12;;;;;;;13.43;7.00;;;4.90;1.00;;;;;;5033497;28;20196;-75
2021/01/06 00:13:39;;;;;;;10.43;6.63;;;4.80;48.60;;;;;;5017656;28;20752;-75
2021/01/06 00:16:05;;;;;;;14.13;7.37;;;4.70;37.80;;;;;;5003184;28;20239;-75
2021/01/06 00:18:32;;;;;;;13.13;7.43;;;4.80;94.40;;;;;;5020852;28;20299;-75
2021/01/06 00:20:58;;;;;;;12.60;7.20;;;4.80;92.30;;;;;;5021781;28;20200;-75
2021/01/06 00:23:25;;;;;;;11.00;6.30;;;4.90;71.00;;;;;;5018512;28;20204;-75
2021/01/06 00:25:51;;;;;;;10.90;7.20;;;4.80;59.30;;;;;;5018083;28;20933;-75
2021/01/06 00:28:19;;;;;;;10.63;6.93;;;4.80;86.70;;;;;;5022331;28;20259;-75
2021/01/06 00:30:46;;;;;;;9.10;6.07;;;5.00;99.90;;;;;;5017389;28;20244;-75
2021/01/06 00:33:26;;;;;;;15.03;7.20;;;4.80;96.20;;;;;;5021188;28;20503;-76
2021/01/06 00:35:55;;;;;;;9.30;5.43;;;4.90;98.40;;;;;;5016136;28;20261;-75
2021/01/06 00:38:27;;;;;;;13.07;6.67;;;4.80;93.60;;;;;;5035504;28;20201;-75
2021/01/06 00:40:53;;;;;;;9.33;6.00;;;4.70;99.90;;;;;;5017888;28;20273;-75
2021/01/06 00:43:20;;;;;;;11.13;6.50;;;4.90;99.90;;;;;;5019135;28;20205;-75
2021/01/06 00:45:46;;;;;;;12.97;6.87;;;4.80;99.90;;;;;;5016887;28;20295;-75
2021/01/06 00:48:14;;;;;;;9.53;6.10;;;4.80;99.90;;;;;;5019564;28;20197;-75
2021/01/06 00:50:41;;;;;;;10.03;6.57;;;4.80;99.90;;;;;;5016678;28;20315;-75
2021/01/06 00:53:13;;;;;;;13.00;6.90;;;4.80;99.90;;;;;;5017439;28;20284;-75
2021/01/06 00:55:39;;;;;;;10.97;6.33;;;4.90;99.90;;;;;;5036445;28;20340;-75
2021/01/06 00:58:06;;;;;;;11.37;6.90;;;4.90;99.90;;;;;;5032517;28;20217;-75
2021/01/06 01:00:32;;;;;;;12.60;6.97;;;4.70;99.90;;;;;;5018969;28;20255;-75
2021/01/06 01:02:58;;;;;;;11.00;7.33;;;4.70;99.90;;;;;;5022268;28;20247;-75
2021/01/06 01:05:28;;;;;;;12.00;6.90;;;4.60;99.90;;;;;;5020801;28;20382;-75
2021/01/06 01:07:55;;;;;;;10.83;6.07;;;4.70;99.90;;;;;;5018858;28;20258;-75
2021/01/06 01:10:33;;;;;;;10.20;6.10;;;4.70;99.90;;;;;;5017516;28;20283;-75
2021/01/06 01:13:03;;;;;;;10.03;6.10;;;4.70;99.90;;;;;;5020169;28;20215;-75
2021/01/06 01:15:31;;;;;;;9.53;5.70;;;4.70;99.90;;;;;;5023583;28;20240;-75
2021/01/06 01:17:57;;;;;;;11.10;6.17;;;4.70;99.90;;;;;;5015961;28;20234;-75
2021/01/06 01:20:24;;;;;;;10.53;5.50;;;4.60;99.90;;;;;;5017056;28;20704;-75
2021/01/06 01:22:51;;;;;;;9.87;6.00;;;4.60;99.90;;;;;;5015619;28;20230;-75
2021/01/06 01:25:20;;;;;;;10.97;6.60;;;4.60;99.90;;;;;;5017430;28;20275;-75
2021/01/06 01:27:47;;;;;;;11.93;6.23;;;4.70;99.90;;;;;;5015642;28;20257;-75
2021/01/06 01:30:22;;;;;;;8.63;5.47;;;4.70;99.90;;;;;;5031400;28;20306;-75
2021/01/06 01:32:49;;;;;;;9.73;5.90;;;4.70;99.90;;;;;;5016754;28;20207;-75
2021/01/06 01:35:22;;;;;;;9.00;6.03;;;4.60;99.90;;;;;;5016267;28;20254;-75
2021/01/06 01:37:49;;;;;;;10.73;5.60;;;4.70;99.90;;;;;;5019131;28;20334;-76
2021/01/06 01:40:33;;;;;;;10.27;5.27;;;4.70;99.90;;;;;;5020216;28;21189;-75
2021/01/06 01:43:13;;;;;;;10.00;6.27;;;4.60;99.90;;;;;;5017200;28;20245;-75
2021/01/06 01:45:46;;;;;;;10.67;5.70;;;4.70;99.90;;;;;;5025203;28;20247;-75
2021/01/06 01:48:18;;;;;;;8.50;5.60;;;4.50;99.90;;;;;;5025200;28;20270;-75
2021/01/06 01:50:46;;;;;;;9.50;5.70;;;4.60;99.90;;;;;;5020537;28;20291;-75
2021/01/06 01:53:19;;;;;;;9.73;5.10;;;4.60;99.90;;;;;;5038016;28;20295;-75
2021/01/06 01:55:46;;;;;;;8.73;5.83;;;4.70;99.90;;;;;;5020255;28;20687;-75
2021/01/06 01:58:19;;;;;;;11.23;5.07;;;4.80;99.90;;;;;;5016391;28;20201;-75
2021/01/06 02:00:48;;;;;;;9.23;5.43;;;4.60;99.90;;;;;;5029950;28;20205;-75
2021/01/06 02:03:22;;;;;;;11.73;5.87;;;4.60;99.90;;;;;;5018228;28;20669;-75
2021/01/06 02:06:13;;;;;;;13.57;6.00;;;4.50;99.90;;;;;;5048823;28;20719;-75
2021/01/06 02:09:04;;;;;;;9.23;5.50;;;4.50;99.90;;;;;;5046865;28;20301;-74
2021/01/06 02:11:41;;;;;;;10.43;5.00;;;4.60;99.90;;;;;;5022210;28;20246;-75
2021/01/06 02:14:11;;;;;;;6.47;4.43;;;4.50;99.90;;;;;;5019472;28;21288;-74
2021/01/06 02:16:59;;;;;;;8.30;5.50;;;4.50;99.90;;;;;;5019029;28;20684;-74
2021/01/06 02:19:38;;;;;;;8.23;5.80;;;4.60;99.90;;;;;;5019380;28;20228;-75
2021/01/06 02:22:11;;;;;;;8.07;5.37;;;4.60;99.90;;;;;;5018619;28;20308;-75
2021/01/06 02:24:38;;;;;;;10.53;4.77;;;4.50;99.90;;;;;;5020016;28;20603;-74
2021/01/06 02:27:05;;;;;;;8.10;5.43;;;4.60;99.90;;;;;;5016743;28;20282;-75
2021/01/06 02:29:34;;;;;;;8.47;5.50;;;4.60;99.90;;;;;;5021219;28;20310;-75
2021/01/06 02:32:01;;;;;;;10.10;5.63;;;4.50;99.90;;;;;;5017275;28;20303;-75
2021/01/06 02:34:27;;;;;;;9.83;5.50;;;4.40;99.90;;;;;;5019511;28;20327;-74
2021/01/06 02:36:54;;;;;;;9.90;6.00;;;4.40;99.90;;;;;;5021053;28;20239;-74
2021/01/06 02:39:20;;;;;;;11.37;5.70;;;4.40;99.90;;;;;;5019657;28;20905;-75
2021/01/06 02:41:48;;;;;;;9.83;5.63;;;4.50;99.90;;;;;;5046817;28;20236;-75
2021/01/06 02:44:16;;;;;;;9.47;6.20;;;4.50;99.90;;;;;;5018999;28;20655;-75
2021/01/06 02:46:44;;;;;;;8.80;5.30;;;4.40;99.90;;;;;;5018992;28;20204;-75
2021/01/06 02:49:13;;;;;;;11.87;5.87;;;4.40;99.90;;;;;;5015714;28;20211;-75
2021/01/06 02:52:09;;;;;;;8.77;5.87;;;4.40;99.90;;;;;;5017055;28;20212;-75
2021/01/06 02:54:38;;;;;;;11.93;5.83;;;4.40;99.90;;;;;;5016979;28;20220;-74
2021/01/06 02:57:06;;;;;;;9.83;6.10;;;4.40;99.90;;;;;;5015782;28;20380;-75
2021/01/06 02:59:43;;;;;;;8.33;5.73;;;4.50;99.90;;;;;;5013124;28;20232;-75
2021/01/06 03:02:12;;;;;;;9.20;5.47;;;4.40;99.90;;;;;;5016879;28;20215;-75
2021/01/06 03:04:45;;;;;;;10.50;6.33;;;4.40;99.90;;;;;;5014681;28;20213;-74
2021/01/06 03:07:13;;;;;;;9.93;6.03;;;4.40;99.90;;;;;;5033133;28;20215;-75
2021/01/06 03:09:43;;;;;;;10.23;6.37;;;4.50;99.90;;;;;;5034075;28;20296;-74
2021/01/06 03:12:26;;;;;;;8.40;4.67;;;4.40;99.90;;;;;;5016598;28;20205;-75
2021/01/06 03:14:53;;;;;;;11.30;6.03;;;4.30;99.90;;;;;;5013385;28;20205;-75
2021/01/06 03:17:22;;;;;;;10.07;6.00;;;4.30;99.90;;;;;;5030321;28;20265;-74
2021/01/06 03:20:00;;;;;;;8.90;6.03;;;4.30;99.90;;;;;;5014044;28;20205;-75
2021/01/06 03:22:29;;;;;;;10.00;6.13;;;4.30;99.90;;;;;;5015570;28;20296;-75
2021/01/06 03:25:14;;;;;;;9.87;5.70;;;4.30;99.90;;;;;;5013038;28;20248;-75
2021/01/06 03:27:43;;;;;;;10.67;6.33;;;4.40;99.90;;;;;;5016643;28;20668;-76
2021/01/06 03:30:15;;;;;;;11.10;6.63;;;4.40;99.90;;;;;;5018839;28;20232;-75
2021/01/06 03:33:06;;;;;;;10.57;5.57;;;4.40;99.90;;;;;;5015395;28;20528;-75
2021/01/06 03:35:41;;;;;;;10.17;5.73;;;4.30;99.90;;;;;;5031388;28;20739;-75
2021/01/06 03:38:48;;;;;;;9.77;5.23;;;4.30;99.90;;;;;;5047840;28;20295;-75
2021/01/06 03:41:16;;;;;;;7.90;5.17;;;4.40;99.90;;;;;;4998388;28;20268;-75
2021/01/06 03:43:47;;;;;;;9.13;5.20;;;4.40;99.90;;;;;;5017103;28;20349;-75
2021/01/06 03:46:43;;;;;;;10.50;5.77;;;4.50;99.90;;;;;;5023811;28;20342;-75
2021/01/06 03:49:18;;;;;;;9.97;5.07;;;4.60;99.40;;;;;;5014406;28;20204;-75
2021/01/06 03:52:03;;;;;;;9.83;6.10;;;4.40;38.10;;;;;;5014801;28;20224;-75
2021/01/06 03:54:35;;;;;;;8.47;5.07;;;4.50;90.50;;;;;;5017994;28;20226;-75
2021/01/06 03:57:02;;;;;;;9.10;5.50;;;4.50;95.10;;;;;;5013737;28;20248;-76
2021/01/06 03:59:32;;;;;;;10.40;6.00;;;4.40;73.20;;;;;;5013510;28;20241;-75
2021/01/06 04:02:11;;;;;;;9.77;6.20;;;4.50;93.80;;;;;;5020160;28;20514;-75
2021/01/06 04:04:42;;;;;;;8.93;5.77;;;4.50;93.20;;;;;;5017752;28;20226;-75
2021/01/06 04:07:14;;;;;;;10.20;6.27;;;4.30;97.70;;;;;;5019540;28;20204;-76
2021/01/06 04:10:04;;;;;;;8.40;5.77;;;4.30;99.90;;;;;;5032365;28;20692;-76
2021/01/06 04:12:32;;;;;;;8.43;6.10;;;4.40;99.90;;;;;;5022707;28;20204;-75
2021/01/06 04:14:58;;;;;;;12.87;6.07;;;4.20;99.90;;;;;;5021613;28;20220;-74
2021/01/06 04:17:36;;;;;;;10.63;5.43;;;4.20;99.90;;;;;;5016651;28;20304;-75
2021/01/06 04:20:19;;;;;;;8.70;5.23;;;4.20;99.90;;;;;;5020574;28;20243;-74
2021/01/06 04:22:51;;;;;;;8.60;5.93;;;4.30;99.90;;;;;;5019382;28;20263;-74
2021/01/06 04:25:32;;;;;;;9.73;5.53;;;4.10;99.90;;;;;;5017738;28;20234;-75
2021/01/06 04:28:19;;;;;;;8.53;5.37;;;4.20;99.90;;;;;;5018817;28;20604;-75
2021/01/06 04:30:58;;;;;;;7.90;5.10;;;4.20;99.90;;;;;;5018604;28;20359;-75
2021/01/06 04:33:37;;;;;;;9.10;6.10;;;4.30;99.90;;;;;;5017608;28;20268;-75
2021/01/06 04:36:13;;;;;;;7.33;5.07;;;4.20;99.90;;;;;;5017693;28;20291;-76
2021/01/06 04:38:44;;;;;;;10.60;5.53;;;4.10;99.90;;;;;;5017680;28;20253;-75
2021/01/06 04:41:21;;;;;;;9.77;5.63;;;4.20;99.90;;;;;;5024313;28;20213;-74
2021/01/06 04:44:01;;;;;;;8.40;5.63;;;4.20;99.90;;;;;;5016747;28;20211;-75
2021/01/06 04:47:05;;;;;;;7.50;4.97;;;4.20;99.90;;;;;;5015289;28;20680;-75
2021/01/06 04:50:06;;;;;;;12.10;6.20;;;4.10;99.90;;;;;;5015006;28;20224;-75
2021/01/06 04:52:41;;;;;;;8.63;5.97;;;4.10;99.90;;;;;;5017531;28;20253;-75
2021/01/06 04:55:32;;;;;;;8.83;5.80;;;4.10;99.90;;;;;;5024873;28;21972;-74
2021/01/06 04:58:09;;;;;;;8.00;5.20;;;4.10;99.90;;;;;;5021802;28;20288;-75
2021/01/06 05:01:01;;;;;;;9.57;6.23;;;4.10;99.90;;;;;;5020355;28;20269;-75
2021/01/06 05:03:53;;;;;;;7.40;5.60;;;4.30;99.90;;;;;;5019807;28;20616;-75
2021/01/06 05:06:41;;;;;;;8.97;5.67;;;4.10;99.90;;;;;;5037794;28;20347;-74
2021/01/06 05:09:26;;;;;;;11.53;5.00;;;4.10;99.90;;;;;;5018282;28;20221;-74
2021/01/06 05:12:03;;;;;;;11.63;6.13;;;4.00;99.90;;;;;;5022609;28;20224;-75
2021/01/06 05:14:39;;;;;;;11.77;5.90;;;4.10;99.90;;;;;;5023749;28;21143;-74
2021/01/06 05:17:08;;;;;;;8.43;5.53;;;4.10;96.40;;;;;;5036275;28;20203;-75
2021/01/06 05:19:35;;;;;;;10.00;6.40;;;4.00;99.90;;;;;;5019030;28;20201;-74
2021/01/06 05:22:05;;;;;;;11.53;6.17;;;4.10;99.90;;;;;;5020953;28;20228;-74
2021/01/06 05:24:38;;;;;;;10.30;5.83;;;4.10;99.40;;;;;;5022333;28;20254;-75
2021/01/06 05:27:14;;;;;;;9.87;5.57;;;4.10;79.40;;;;;;5033210;28;20965;-75
2021/01/06 05:29:53;;;;;;;7.73;5.07;;;4.10;86.20;;;;;;5033828;28;20218;-75
2021/01/06 05:32:38;;;;;;;8.60;5.70;;;4.10;71.00;;;;;;5027647;28;20609;-74
2021/01/06 05:35:06;;;;;;;9.40;5.80;;;4.10;95.50;;;;;;5050586;28;21024;-75
2021/01/06 05:37:36;;;;;;;9.03;5.83;;;4.20;50.00;;;;;;5032241;28;20788;-75
2021/01/06 05:40:08;;;;;;;14.50;5.43;;;4.10;60.70;;;;;;5020924;28;20285;-75
2021/01/06 05:42:59;;;;;;;8.53;5.60;;;4.10;63.80;;;;;;5018243;28;20203;-74
2021/01/06 05:45:39;;;;;;;8.37;5.70;;;4.10;81.60;;;;;;5021008;28;20885;-75
2021/01/06 05:48:21;;;;;;;10.00;5.60;;;4.20;67.80;;;;;;5030046;28;20289;-75
2021/01/06 05:50:58;;;;;;;9.50;6.00;;;4.20;40.40;;;;;;5022892;28;20227;-75
2021/01/06 05:53:41;;;;;;;12.53;6.37;;;4.20;25.00;;;;;;5019773;28;20242;-75
2021/01/06 05:56:50;;;;;;;9.63;6.13;;;4.10;26.30;;;;;;5018747;28;20270;-74
2021/01/06 05:59:35;;;;;;;8.97;5.73;;;4.20;25.80;;;;;;5000743;28;20209;-74
2021/01/06 06:02:42;;;;;;;9.67;5.33;;;4.20;1.00;;;;;;5013510;28;20207;-75
2021/01/06 06:05:25;;;;;;;10.70;6.17;;;4.20;1.00;;;;;;5032466;28;20318;-75
2021/01/06 06:08:02;;;;;;;8.67;5.80;;;4.20;8.80;;;;;;5008483;28;20201;-75
2021/01/06 06:10:40;;;;;;;11.13;6.10;;;4.30;1.00;;;;;;5018803;28;21065;-74
2021/01/06 06:13:28;;;;;;;10.13;5.53;;;4.20;1.00;;;;;;5018775;28;20206;-75
2021/01/06 06:16:16;;;;;;;11.10;5.70;;;4.10;1.00;;;;;;5020711;28;20266;-74
2021/01/06 06:19:07;;;;;;;11.23;6.50;;;4.10;17.40;;;;;;5023277;28;20315;-75
2021/01/06 06:21:42;;;;;;;12.07;5.83;;;4.10;1.30;;;;;;5018545;28;20286;-74
2021/01/06 06:24:19;;;;;;;9.43;5.73;;;4.10;5.70;;;;;;5030755;28;20211;-74
2021/01/06 06:26:51;;;;;;;10.70;5.90;;;4.10;1.00;;;;;;5033547;28;20305;-75
2021/01/06 06:29:24;;;;;;;9.87;5.97;;;4.20;1.00;;;;;;5017744;28;20201;-74
2021/01/06 06:31:56;;;;;;;10.30;5.73;;;4.10;1.00;;;;;;5021527;28;20225;-74
2021/01/06 06:34:35;;;;;;;11.53;6.10;;;4.10;1.00;;;;;;5020407;28;21296;-75
2021/01/06 06:37:09;;;;;;;8.60;5.17;;;4.10;1.00;;;;;;5017250;28;20197;-74
2021/01/06 06:40:04;;;;;;;11.57;6.27;;;4.10;1.00;;;;;;5032363;28;20192;-75
2021/01/06 06:42:35;;;;;;;11.03;5.63;;;4.20;1.00;;;;;;5031432;28;20236;-75
2021/01/06 06:45:16;;;;;;;9.40;5.43;;;4.10;1.00;;;;;;5020723;28;20244;-76
2021/01/06 06:47:42;;;;;;;9.57;5.13;;;4.00;1.00;;;;;;5020640;28;20243;-75
2021/01/06 06:50:30;;;;;;;9.47;5.40;;;4.00;1.00;;;;;;5010872;28;20267;-74
2021/01/06 06:53:03;;;;;;;8.43;5.77;;;4.00;1.00;;;;;;5021271;28;20208;-74
2021/01/06 06:55:47;;;;;;;8.10;5.10;;;4.10;1.00;;;;;;5013861;28;20727;-75
2021/01/06 06:58:40;;;;;;;7.83;5.37;;;4.10;1.00;;;;;;5018679;28;20205;-75
2021/01/06 07:01:34;;;;;;;10.87;5.50;;;4.00;1.00;;;;;;5026188;28;20209;-75
2021/01/06 07:04:21;;;;;;;7.53;4.63;;;4.00;1.00;;;;;;5016060;28;20253;-75
2021/01/06 07:06:54;;;;;;;7.53;5.37;;;4.00;1.00;;;;;;5015136;28;20215;-74
2021/01/06 07:09:29;;;;;;;7.77;4.90;;;4.10;1.00;;;;;;5045204;28;20912;-75
2021/01/06 07:12:03;;;;;;;12.17;6.33;;;4.20;1.00;;;;;;5016656;28;20208;-75
2021/01/06 07:14:47;;;;;;;9.20;5.93;;;4.20;1.00;;;;;;5016475;28;20612;-74
2021/01/06 07:17:38;;;;;;;8.43;5.53;;;4.10;1.00;;;;;;5018277;28;20212;-75
2021/01/06 07:20:12;;;;;;;12.83;5.57;;;4.20;1.00;;;;;;5017088;28;20260;-75
2021/01/06 07:22:56;;;;;;;9.57;5.40;;;4.20;1.00;;;;;;5017000;28;20286;-75
2021/01/06 07:25:22;;;;;;;8.67;5.37;;;4.20;1.00;;;;;;5017173;28;20565;-75
2021/01/06 07:27:52;;;;;;;14.63;5.83;;;4.30;1.00;;;;;;5014846;28;20685;-75
2021/01/06 07:30:41;;;;;;;8.10;5.13;;;4.20;1.00;;;;;;5015077;28;20204;-75
2021/01/06 07:33:18;;;;;;;7.70;5.07;;;4.20;1.00;;;;;;5016669;28;20272;-74
2021/01/06 07:35:45;;;;;;;9.70;4.87;;;4.10;1.00;;;;;;5013560;28;20314;-75
2021/01/06 07:38:12;;;;;;;8.80;5.50;;;4.20;1.00;;;;;;5021290;28;20297;-75
2021/01/06 07:40:41;;;;;;;7.60;5.30;;;4.30;99.90;;;;;;5018809;28;20311;-75
2021/01/06 07:43:08;;;;;;;7.87;5.10;;;4.30;1.00;;;;;;5032708;28;20653;-75
2021/01/06 07:45:39;;;;;;;8.63;4.93;;;4.30;94.80;;;;;;5019299;28;20248;-74
2021/01/06 07:48:17;;;;;;;8.80;5.93;;;4.20;99.90;;;;;;5015778;28;20235;-74
2021/01/06 07:50:54;;;;;;;6.77;4.47;;;4.30;1.00;;;;;;5030705;28;20293;-73
2021/01/06 07:53:21;;;;;;;7.37;5.17;;;4.30;1.00;;;;;;5019863;28;20208;-75
2021/01/06 07:56:01;;;;;;;12.00;5.43;;;4.30;1.00;;;;;;5018308;28;20612;-75
2021/01/06 07:58:35;;;;;;;7.17;4.40;;;4.30;99.90;;;;;;5020649;28;20242;-75
2021/01/06 08:01:32;;;;;;;5.67;4.23;;;4.20;1.00;;;;;;5021635;28;20216;-75
2021/01/06 08:04:18;;;;;;;8.13;4.47;;;4.30;1.00;;;;;;5021069;28;20703;-75
2021/01/06 08:06:51;;;;;;;10.83;4.50;;;4.00;1.00;;;;;;5021438;28;20306;-76
2021/01/06 08:09:30;;;;;;;7.83;4.50;;;4.00;1.00;;;;;;5021390;28;20565;-75
2021/01/06 08:11:56;;;;;;;8.50;4.50;;;4.00;99.90;;;;;;5025540;28;20785;-74
2021/01/06 08:14:31;;;;;;;6.37;4.17;;;4.20;1.00;;;;;;5039691;28;20719;-75
2021/01/06 08:17:30;;;;;;;8.23;4.03;;;4.20;99.90;;;;;;5019797;28;20604;-75
2021/01/06 08:20:10;;;;;;;7.57;4.40;;;4.10;1.00;;;;;;5023179;28;20209;-76
2021/01/06 08:22:47;;;;;;;8.67;4.93;;;4.10;99.90;;;;;;5052698;28;20239;-74
2021/01/06 08:25:24;;;;;;;8.20;4.00;;;4.10;1.00;;;;;;5028786;28;20545;-74
2021/01/06 08:27:51;;;;;;;7.00;4.47;;;4.20;99.90;;;;;;5024848;28;20277;-75
2021/01/06 08:30:27;;;;;;;8.47;4.10;;;4.20;99.90;;;;;;5026864;28;22512;-75
2021/01/06 08:33:13;;;;;;;8.30;4.70;;;4.20;23.70;;;;;;5026781;28;20261;-75
2021/01/06 08:35:42;;;;;;;6.20;3.93;;;4.20;1.00;;;;;;5036210;28;20688;-76
2021/01/06 08:38:30;;;;;;;9.60;4.57;;;4.20;1.00;;;;;;5038730;28;20712;-76
2021/01/06 08:41:17;;;;;;;8.57;4.97;;;4.30;1.00;;;;;;5044420;28;20212;-74
2021/01/06 08:43:45;;;;;;;8.07;4.40;;;4.20;99.90;;;;;;5024612;28;20239;-75
2021/01/06 08:46:22;;;;;;;6.13;4.20;;;4.40;1.00;;;;;;5022903;28;20278;-75
2021/01/06 08:48:49;;;;;;;8.53;4.23;;;4.30;1.00;;;;;;5028404;28;20346;-75
2021/01/06 08:51:33;;;;;;;8.93;4.47;;;4.30;1.00;;;;;;5056344;28;20201;-74
2021/01/06 08:54:16;;;;;;;6.97;4.27;;;4.40;31.00;;;;;;5025302;28;20231;-78
2021/01/06 08:56:43;;;;;;;6.17;4.30;;;4.50;1.00;;;;;;5017119;28;20606;-75
2021/01/06 08:59:27;;;;;;;7.47;4.17;;;4.50;1.00;;;;;;5017813;28;20216;-75
2021/01/06 09:01:59;;;;;;;5.90;4.63;;;4.30;1.00;;;;;;5019034;28;20622;-75
2021/01/06 09:04:42;;;;;;;7.47;5.10;;;4.30;99.90;;;;;;5026115;28;20652;-76
2021/01/06 09:07:08;;;;;;;8.03;4.60;;;4.20;99.90;;;;;;5024615;28;20245;-77
2021/01/06 09:10:03;;;;;;;6.47;3.90;;;4.30;1.00;;;;;;5022499;28;20247;-75
2021/01/06 09:12:38;;;;;;;9.03;4.87;;;4.20;36.90;;;;;;5039604;28;20197;-75
2021/01/06 09:15:15;;;;;;;8.50;5.13;;;4.30;1.00;;;;;;5028184;28;20253;-74
2021/01/06 09:18:05;;;;;;;8.80;4.87;;;4.30;99.90;;;;;;5025741;28;20731;-75
2021/01/06 09:20:44;;;;;;;11.40;6.43;;;4.40;1.00;;;;;;5015964;28;20680;-75
2021/01/06 09:23:17;;;;;;;9.30;5.10;;;4.30;1.00;;;;;;5026253;28;20265;-73
2021/01/06 09:25:43;;;;;;;8.00;3.90;;;4.20;99.90;;;;;;5024312;28;20575;-75
2021/01/06 09:28:13;;;;;;;7.03;5.20;;;4.30;1.00;;;;;;5007931;28;20217;-76
2021/01/06 09:30:40;;;;;;;8.57;4.77;;;4.50;1.00;;;;;;5031971;28;20275;-75
2021/01/06 09:33:19;;;;;;;6.13;4.33;;;4.40;99.90;;;;;;5016588;28;20235;-74
2021/01/06 09:35:45;;;;;;;7.20;4.03;;;4.30;99.90;;;;;;5016766;28;20266;-73
2021/01/06 09:38:36;;;;;;;9.23;5.00;;;4.30;1.00;;;;;;5017057;28;20232;-73
2021/01/06 09:41:08;;;;;;;7.50;4.37;;;4.30;1.00;;;;;;5029629;28;20269;-74
2021/01/06 09:43:39;;;;;;;8.03;4.47;;;4.30;1.00;;;;;;5011540;28;20216;-74
2021/01/06 09:46:20;;;;;;;7.07;4.40;;;4.30;1.00;;;;;;5014778;28;20288;-74
2021/01/06 09:49:00;;;;;;;5.80;4.07;;;4.30;1.00;;;;;;5035208;28;20485;-75
2021/01/06 09:51:28;;;;;;;7.67;4.30;;;4.40;1.00;;;;;;5021720;28;20277;-75
2021/01/06 09:53:58;;;;;;;6.77;4.03;;;4.50;1.00;;;;;;5024264;28;20708;-74
2021/01/06 09:56:27;;;;;;;7.40;4.17;;;4.60;1.00;;;;;;5022534;28;20590;-74
2021/01/06 09:58:54;;;;;;;8.77;4.73;;;4.40;1.00;;;;;;5019812;28;20216;-77
2021/01/06 10:01:44;;;;;;;6.97;4.47;;;4.40;99.90;;;;;;5031938;28;20645;-74
2021/01/06 10:04:18;;;;;;;7.30;4.67;;;4.50;1.00;;;;;;5016202;28;20248;-74
2021/01/06 10:07:03;;;;;;;7.20;4.63;;;4.70;1.00;;;;;;5015677;28;20236;-74
2021/01/06 10:09:37;;;;;;;8.57;4.60;;;4.70;1.00;;;;;;5021451;28;20253;-74
2021/01/06 10:12:38;;;;;;;5.97;4.13;;;4.60;1.00;;;;;;5019702;28;20205;-75
2021/01/06 10:15:10;;;;;;;7.33;4.27;;;4.60;1.00;;;;;;5020750;28;20285;-75
2021/01/06 10:17:47;;;;;;;9.33;4.60;;;4.60;1.00;;;;;;5020609;28;20254;-75
2021/01/06 10:20:28;;;;;;;6.50;4.50;;;4.60;1.00;;;;;;5018508;28;20259;-76
2021/01/06 10:23:13;;;;;;;7.87;4.30;;;4.50;1.00;;;;;;5028291;28;20545;-75
2021/01/06 10:26:00;;;;;;;8.00;4.77;;;4.60;1.00;;;;;;5028017;28;20245;-74
2021/01/06 10:28:32;;;;;;;6.10;4.53;;;4.50;99.90;;;;;;5018117;28;20255;-75
2021/01/06 10:31:00;;;;;;;7.03;4.60;;;4.50;1.00;;;;;;5016041;28;20334;-75
2021/01/06 10:33:27;;;;;;;8.20;5.00;;;4.50;99.90;;;;;;5020035;28;20311;-75
2021/01/06 10:36:08;;;;;;;8.57;4.87;;;4.60;1.00;;;;;;5050334;28;20664;-75
2021/01/06 10:38:44;;;;;;;8.70;4.73;;;4.50;1.00;;;;;;5031806;28;20209;-75
2021/01/06 10:41:24;;;;;;;12.87;5.63;;;4.60;99.90;;;;;;5036238;28;21703;-74
2021/01/06 10:43:56;;;;;;;8.53;4.43;;;4.60;93.30;;;;;;5020508;28;20229;-75
2021/01/06 10:46:51;;;;;;;8.97;4.77;;;4.70;99.90;;;;;;5024690;28;21800;-75
2021/01/06 10:49:20;;;;;;;11.03;5.20;;;4.50;99.90;;;;;;5023533;28;20545;-75
2021/01/06 10:51:57;;;;;;;7.70;4.57;;;4.60;99.90;;;;;;5037049;28;20244;-74
2021/01/06 10:54:52;;;;;;;9.83;5.03;;;4.70;1.00;;;;;;5023672;28;20266;-75
2021/01/06 10:57:40;;;;;;;8.97;5.37;;;4.70;99.90;;;;;;5029557;28;20231;-75
2021/01/06 11:00:23;;;;;;;8.57;4.37;;;4.60;1.00;;;;;;5027029;28;20500;-75
2021/01/06 11:03:23;;;;;;;10.67;5.67;;;4.60;1.00;;;;;;5015055;28;20232;-76
2021/01/06 11:05:52;;;;;;;7.50;4.70;;;4.60;99.90;;;;;;5022485;28;20248;-75
2021/01/06 11:08:50;;;;;;;8.50;4.90;;;4.60;1.00;;;;;;5016231;28;20993;-75
2021/01/06 11:11:40;;;;;;;9.60;4.87;;;4.50;22.50;;;;;;5022585;28;20267;-75
2021/01/06 11:14:30;;;;;;;9.30;4.80;;;4.70;1.00;;;;;;5009161;28;20212;-75
2021/01/06 11:17:10;;;;;;;7.40;4.60;;;4.80;1.00;;;;;;5009457;28;20263;-75
2021/01/06 11:19:58;;;;;;;8.13;4.67;;;4.80;99.90;;;;;;5014344;28;20291;-75
2021/01/06 11:22:42;;;;;;;6.90;4.77;;;4.60;1.00;;;;;;5017595;28;20204;-75
2021/01/06 11:25:50;;;;;;;8.73;4.80;;;4.50;1.00;;;;;;5015667;28;20299;-74
2021/01/06 11:28:41;;;;;;;9.23;4.83;;;4.60;1.00;;;;;;5000615;28;20203;-75
2021/01/06 11:31:21;;;;;;;6.97;5.30;;;4.60;1.00;;;;;;4994572;28;20229;-74
2021/01/06 11:33:57;;;;;;;8.03;4.87;;;4.60;1.00;;;;;;4982558;28;20347;-74
2021/01/06 11:36:45;;;;;;;12.50;5.73;;;4.50;1.00;;;;;;4983524;28;20204;-75
2021/01/06 11:39:33;;;;;;;6.63;4.70;;;4.50;1.00;;;;;;5000475;28;20256;-74
2021/01/06 11:42:13;;;;;;;8.00;5.20;;;4.40;1.00;;;;;;4980083;28;20313;-75
2021/01/06 11:45:06;;;;;;;8.63;5.10;;;4.40;99.90;;;;;;5000618;28;20216;-75
2021/01/06 11:47:46;;;;;;;11.87;5.27;;;4.60;1.00;;;;;;4998015;28;20296;-75
2021/01/06 11:50:35;;;;;;;8.40;5.20;;;4.70;1.00;;;;;;4995720;28;20197;-74
2021/01/06 11:53:36;;;;;;;8.97;4.73;;;4.80;1.00;;;;;;5001769;28;20622;-74
2021/01/06 11:56:23;;;;;;;10.33;5.20;;;4.90;99.90;;;;;;4985499;28;20252;-75
2021/01/06 11:59:21;;;;;;;8.57;5.30;;;4.80;1.00;;;;;;5002042;28;20273;-75
2021/01/06 12:02:09;;;;;;;9.43;5.23;;;4.80;9.90;;;;;;5019941;28;20225;-75
2021/01/06 12:05:04;;;;;;;11.47;5.87;;;4.80;99.90;;;;;;5021650;28;20261;-75
2021/01/06 12:07:46;;;;;;;7.97;4.40;;;4.90;1.00;;;;;;5036958;28;20236;-74
2021/01/06 12:10:31;;;;;;;8.00;5.23;;;4.90;1.00;;;;;;5013910;28;20208;-74
2021/01/06 12:13:24;;;;;;;6.97;4.30;;;4.70;99.90;;;;;;5022982;28;20588;-75
2021/01/06 12:16:21;;;;;;;5.63;4.33;;;4.80;1.00;;;;;;5017298;28;20239;-75
2021/01/06 12:18:59;;;;;;;9.17;4.97;;;4.60;1.00;;;;;;5015524;28;20224;-75
2021/01/06 12:21:44;;;;;;;8.70;4.80;;;4.80;1.00;;;;;;5025676;28;20197;-75
2021/01/06 12:24:44;;;;;;;10.57;4.77;;;4.70;1.00;;;;;;5011291;28;20208;-74
2021/01/06 12:27:22;;;;;;;8.90;5.20;;;4.70;1.00;;;;;;5017070;28;20286;-75
2021/01/06 12:29:57;;;;;;;8.80;5.30;;;4.60;99.90;;;;;;5031272;28;20292;-76
2021/01/06 12:32:24;;;;;;;7.37;4.27;;;4.70;1.00;;;;;;5036452;28;20205;-75
2021/01/06 12:35:00;;;;;;;11.17;4.93;;;4.80;99.90;;;;;;5018672;28;20236;-75
2021/01/06 12:37:30;;;;;;;8.97;5.67;;;4.80;1.00;;;;;;5015327;28;20252;-74
2021/01/06 12:40:26;;;;;;;8.60;4.50;;;4.90;1.00;;;;;;5019345;28;20203;-73
2021/01/06 12:43:02;;;;;;;5.97;4.33;;;5.00;1.00;;;;;;5018480;28;20279;-75
2021/01/06 12:45:43;;;;;;;9.43;5.30;;;5.10;1.00;;;;;;5015723;28;20356;-74
2021/01/06 12:48:24;;;;;;;7.77;4.33;;;5.10;99.90;;;;;;5014705;28;20211;-75
2021/01/06 12:51:02;;;;;;;9.63;5.03;;;5.10;1.00;;;;;;5017784;28;20315;-78
2021/01/06 12:53:33;;;;;;;8.27;4.87;;;4.90;1.50;;;;;;5020704;28;20273;-76
2021/01/06 12:56:05;;;;;;;7.90;5.10;;;4.90;1.00;;;;;;5024832;28;20200;-77
2021/01/06 12:58:46;;;;;;;8.97;5.17;;;5.30;1.00;;;;;;5024632;28;20283;-77
2021/01/06 13:01:25;;;;;;;8.10;4.20;;;5.20;1.00;;;;;;5024537;28;20278;-77
2021/01/06 13:04:02;;;;;;;5.63;4.60;;;5.20;1.00;;;;;;5033112;28;20285;-76
2021/01/06 13:06:31;;;;;;;7.10;4.67;;;5.10;1.00;;;;;;5020661;28;20257;-77
2021/01/06 13:09:12;;;;;;;10.40;4.67;;;5.30;1.00;;;;;;5019697;28;20263;-74
2021/01/06 13:11:38;;;;;;;10.63;5.40;;;5.30;1.00;;;;;;5021379;28;20205;-75
2021/01/06 13:14:16;;;;;;;6.80;4.53;;;5.30;99.90;;;;;;5018880;28;20209;-75
2021/01/06 13:17:12;;;;;;;11.23;5.43;;;5.20;1.00;;;;;;5033094;28;20204;-74
2021/01/06 13:19:57;;;;;;;11.53;4.70;;;5.10;1.00;;;;;;5015841;28;20205;-74
2021/01/06 13:22:37;;;;;;;8.33;4.80;;;5.10;1.00;;;;;;5023885;28;20231;-75
2021/01/06 13:25:14;;;;;;;7.00;4.03;;;5.10;1.00;;;;;;5027571;28;20229;-75
2021/01/06 13:27:52;;;;;;;8.33;4.23;;;5.10;1.00;;;;;;5014438;28;20193;-76
2021/01/06 13:30:34;;;;;;;6.30;4.13;;;5.20;1.00;;;;;;5020756;28;20200;-76
2021/01/06 13:33:18;;;;;;;7.53;4.40;;;5.20;1.00;;;;;;5020689;28;20197;-74
2021/01/06 13:35:56;;;;;;;6.07;3.90;;;5.10;1.00;;;;;;5032104;28;20257;-75
2021/01/06 13:38:32;;;;;;;7.03;4.40;;;4.90;1.00;;;;;;5015686;28;20342;-75
2021/01/06 13:41:13;;;;;;;8.37;4.47;;;4.90;1.00;;;;;;5022267;28;20291;-74
2021/01/06 13:43:51;;;;;;;7.77;4.53;;;4.90;1.00;;;;;;5016998;28;20304;-75
2021/01/06 13:46:56;;;;;;;9.23;5.03;;;4.80;1.00;;;;;;5018767;28;20240;-74
2021/01/06 13:49:29;;;;;;;7.10;4.67;;;4.80;20.40;;;;;;5035950;28;20628;-75
2021/01/06 13:52:22;;;;;;;6.87;4.30;;;5.00;1.00;;;;;;5017462;28;20197;-74